createdAt,value
2022-11-07T00:01:14.865Z,687.23
2022-11-07T00:03:42.882Z,686.07
2022-11-07T00:06:09.645Z,689.13
2022-11-07T00:08:36.450Z,690.87
2022-11-07T00:11:03.120Z,688.03
2022-11-07T00:13:29.897Z,683.13
2022-11-07T00:16:03.418Z,681.83
2022-11-07T00:18:30.246Z,683.50
2022-11-07T00:20:57.051Z,682.10
2022-11-07T00:23:24.088Z,681.33
2022-11-07T00:25:52.375Z,691.80
2022-11-07T00:28:20.026Z,685.23
2022-11-07T00:30:56.412Z,683.70
2022-11-07T00:33:23.470Z,686.37
2022-11-07T00:35:50.318Z,681.53
2022-11-07T00:38:21.191Z,683.37
2022-11-07T00:40:48.024Z,683.20
2022-11-07T00:43:15.477Z,683.53
2022-11-07T00:45:53.586Z,689.07
2022-11-07T00:48:23.525Z,682.83
2022-11-07T00:50:53.319Z,689.80
2022-11-07T00:53:24.466Z,680.60
2022-11-07T00:55:53.921Z,687.93
2022-11-07T00:58:21.061Z,686.77
2022-11-07T01:00:54.116Z,681.67
2022-11-07T01:03:28.796Z,684.17
2022-11-07T01:06:04.363Z,682.73
2022-11-07T01:08:31.076Z,685.93
2022-11-07T01:11:03.138Z,684.17
2022-11-07T01:13:29.945Z,682.53
2022-11-07T01:15:57.865Z,683.33
2022-11-07T01:18:24.798Z,685.47
2022-11-07T01:20:51.526Z,687.33
2022-11-07T01:23:18.539Z,684.07
2022-11-07T01:25:53.621Z,688.13
2022-11-07T01:28:21.529Z,680.00
2022-11-07T01:30:52.842Z,685.13
2022-11-07T01:33:19.854Z,683.70
2022-11-07T01:35:49.297Z,685.30
2022-11-07T01:38:16.535Z,685.60
2022-11-07T01:40:43.622Z,686.17
2022-11-07T01:43:10.321Z,686.50
2022-11-07T01:45:37.870Z,685.50
2022-11-07T01:48:04.529Z,688.57
2022-11-07T01:50:32.611Z,684.53
2022-11-07T01:52:59.503Z,682.33
2022-11-07T01:55:33.353Z,679.53
2022-11-07T01:58:00.037Z,684.60
2022-11-07T02:00:27.608Z,682.10
2022-11-07T02:02:54.634Z,683.70
2022-11-07T02:05:23.512Z,688.67
2022-11-07T02:07:50.678Z,689.03
2022-11-07T02:10:17.874Z,685.27
2022-11-07T02:12:44.816Z,689.27
2022-11-07T02:17:53.446Z,684.13
2022-11-07T02:20:21.315Z,683.50
2022-11-07T02:22:48.125Z,684.63
2022-11-07T02:25:14.887Z,684.63
2022-11-07T02:27:42.307Z,685.50
2022-11-07T02:30:12.656Z,690.47
2022-11-07T02:32:39.653Z,695.43
2022-11-07T02:35:08.805Z,683.07
2022-11-07T02:37:38.441Z,682.53
2022-11-07T02:45:26.579Z,685.13
2022-11-07T03:03:57.707Z,688.77
2022-11-07T03:06:24.511Z,687.33
2022-11-07T03:30:27.477Z,687.70
2022-11-07T03:32:56.146Z,686.63
2022-11-07T03:35:23.005Z,687.40
2022-11-07T03:38:00.798Z,683.43
2022-11-07T03:40:29.914Z,686.37
2022-11-07T03:45:41.871Z,683.20
2022-11-07T03:48:08.874Z,686.17
2022-11-07T03:50:36.593Z,682.17
2022-11-07T03:53:03.381Z,684.67
2022-11-07T03:55:33.081Z,682.33
2022-11-07T03:58:04.089Z,685.13
2022-11-07T04:00:31.076Z,684.50
2022-11-07T04:02:58.420Z,690.17
2022-11-07T04:05:25.224Z,683.27
2022-11-07T04:07:54.211Z,686.37
2022-11-07T04:10:21.286Z,684.47
2022-11-07T04:12:47.940Z,684.77
2022-11-07T04:15:15.812Z,682.63
2022-11-07T04:17:42.525Z,689.57
2022-11-07T04:20:09.302Z,688.87
2022-11-07T04:22:36.039Z,684.07
2022-11-07T04:25:02.971Z,688.97
2022-11-07T04:27:29.705Z,688.57
2022-11-07T04:29:56.479Z,683.83
2022-11-07T04:32:27.518Z,685.27
2022-11-07T04:34:54.559Z,688.70
2022-11-07T04:37:21.227Z,680.53
2022-11-07T04:39:49.086Z,683.77
2022-11-07T04:42:17.584Z,690.07
2022-11-07T04:44:44.346Z,682.77
2022-11-07T04:47:11.262Z,685.20
2022-11-07T04:49:52.702Z,683.20
2022-11-07T04:52:19.738Z,683.93
2022-11-07T04:54:46.977Z,680.83
2022-11-07T04:57:14.780Z,684.47
2022-11-07T04:59:42.644Z,682.20
2022-11-07T05:02:10.945Z,692.03
2022-11-07T05:04:37.739Z,682.37
2022-11-07T05:07:04.445Z,688.33
2022-11-07T05:09:31.629Z,687.97
2022-11-07T05:11:58.356Z,683.70
2022-11-07T05:14:25.111Z,684.30
2022-11-07T05:16:51.761Z,688.70
2022-11-07T05:19:18.655Z,684.93
2022-11-07T05:21:45.424Z,689.40
2022-11-07T05:24:12.349Z,687.03
2022-11-07T05:26:38.852Z,689.10
2022-11-07T05:29:05.511Z,682.83
2022-11-07T05:31:32.476Z,685.73
2022-11-07T05:33:59.432Z,688.57
2022-11-07T05:36:26.094Z,686.87
2022-11-07T05:38:52.608Z,687.23
2022-11-07T05:41:19.135Z,685.03
2022-11-07T05:43:45.691Z,683.57
2022-11-07T05:46:13.001Z,688.23
2022-11-07T05:48:39.405Z,687.30
2022-11-07T05:51:05.839Z,683.27
2022-11-07T05:53:32.345Z,684.80
2022-11-07T05:55:58.857Z,686.13
2022-11-07T05:58:25.272Z,688.33
2022-11-07T06:00:51.764Z,691.33
2022-11-07T06:03:18.855Z,687.93
2022-11-07T06:05:45.684Z,685.57
2022-11-07T06:08:12.119Z,684.83
2022-11-07T06:10:38.567Z,683.47
2022-11-07T06:13:05.000Z,689.63
2022-11-07T06:15:31.450Z,683.73
2022-11-07T06:17:57.904Z,685.87
2022-11-07T06:20:29.367Z,683.37
2022-11-07T06:22:55.857Z,688.47
2022-11-07T06:25:22.519Z,684.03
2022-11-07T06:27:50.192Z,685.30
2022-11-07T06:30:16.637Z,684.93
2022-11-07T06:32:43.279Z,681.17
2022-11-07T06:35:09.739Z,686.37
2022-11-07T06:37:36.166Z,688.27
2022-11-07T06:40:02.618Z,681.33
2022-11-07T06:42:29.040Z,689.13
2022-11-07T06:44:55.982Z,690.20
2022-11-07T06:47:22.836Z,688.27
2022-11-07T06:49:49.330Z,681.40
2022-11-07T06:52:15.759Z,692.87
2022-11-07T06:54:53.451Z,685.57
2022-11-07T06:57:22.351Z,687.63
2022-11-07T07:13:38.118Z,691.67
2022-11-07T07:16:04.606Z,688.23
2022-11-07T07:23:56.887Z,683.03
2022-11-07T07:26:23.342Z,690.23
2022-11-07T07:28:55.476Z,681.20
2022-11-07T07:34:03.698Z,686.97
2022-11-07T07:36:30.467Z,694.23
2022-11-07T07:38:56.976Z,685.07
2022-11-07T07:41:23.453Z,692.13
2022-11-07T07:49:27.083Z,689.57
2022-11-07T07:51:54.660Z,685.53
2022-11-07T07:54:21.108Z,692.80
2022-11-07T07:56:53.542Z,686.57
2022-11-07T07:59:23.689Z,691.33
2022-11-07T08:01:57.370Z,691.90
2022-11-07T08:04:24.215Z,680.80
2022-11-07T08:06:50.689Z,691.80
2022-11-07T08:09:22.414Z,692.00
2022-11-07T08:11:48.882Z,689.30
2022-11-07T08:14:15.403Z,691.07
2022-11-07T08:16:41.903Z,686.57
2022-11-07T08:19:11.160Z,682.23
2022-11-07T08:24:21.919Z,690.70
2022-11-07T08:37:44.143Z,686.50
2022-11-07T08:40:10.686Z,689.13
2022-11-07T08:42:37.264Z,684.47
2022-11-07T08:53:09.947Z,690.13
2022-11-07T08:55:36.610Z,683.83
2022-11-07T08:58:03.292Z,687.57
2022-11-07T09:00:29.982Z,689.63
2022-11-07T09:03:24.327Z,689.23
2022-11-07T09:05:43.136Z,684.57
2022-11-07T09:08:09.613Z,683.70
2022-11-07T09:10:36.090Z,685.17
2022-11-07T09:13:02.627Z,686.37
2022-11-07T09:15:29.110Z,682.07
2022-11-07T09:17:55.596Z,685.20
2022-11-07T09:20:22.088Z,686.53
2022-11-07T09:22:48.562Z,689.73
2022-11-07T09:25:15.056Z,689.43
2022-11-07T09:27:41.533Z,688.70
2022-11-07T09:30:07.957Z,690.30
2022-11-07T09:32:49.046Z,686.60
2022-11-07T09:35:15.540Z,687.83
2022-11-07T09:37:41.969Z,685.30
2022-11-07T09:40:08.420Z,682.87
2022-11-07T09:42:34.904Z,686.07
2022-11-07T09:45:01.415Z,685.90
2022-11-07T09:47:28.021Z,682.50
2022-11-07T09:49:54.462Z,684.10
2022-11-07T09:52:20.930Z,685.07
2022-11-07T09:54:47.354Z,689.30
2022-11-07T09:57:14.397Z,687.30
2022-11-07T09:59:40.908Z,683.87
2022-11-07T10:02:07.438Z,685.40
2022-11-07T10:04:33.995Z,688.90
2022-11-07T10:07:00.489Z,687.47
2022-11-07T10:09:27.017Z,687.43
2022-11-07T10:11:53.490Z,686.30
2022-11-07T10:14:19.971Z,684.20
2022-11-07T10:16:46.438Z,682.90
2022-11-07T10:19:12.883Z,682.20
2022-11-07T10:21:39.683Z,691.80
2022-11-07T10:24:06.183Z,690.33
2022-11-07T10:26:32.650Z,685.10
2022-11-07T10:28:59.150Z,684.13
2022-11-07T10:31:25.639Z,687.23
2022-11-07T10:33:52.152Z,690.17
2022-11-07T10:36:18.647Z,686.33
2022-11-07T10:38:45.050Z,686.30
2022-11-07T10:41:11.544Z,682.27
2022-11-07T10:43:38.341Z,683.07
2022-11-07T10:46:04.819Z,683.83
2022-11-07T10:48:32.877Z,692.73
2022-11-07T10:51:05.114Z,685.03
2022-11-07T10:53:32.904Z,682.93
2022-11-07T10:55:59.377Z,685.00
2022-11-07T10:58:25.906Z,688.13
2022-11-07T11:03:44.349Z,682.07
2022-11-07T11:09:02.813Z,682.17
2022-11-07T11:11:29.244Z,683.97
2022-11-07T11:13:55.661Z,688.43
2022-11-07T11:16:22.130Z,682.73
2022-11-07T11:18:48.562Z,687.60
2022-11-07T11:21:15.022Z,683.77
2022-11-07T11:23:41.461Z,684.30
2022-11-07T11:26:07.894Z,689.20
2022-11-07T11:28:34.346Z,687.80
2022-11-07T11:31:00.826Z,686.13
2022-11-07T11:33:27.271Z,686.70
2022-11-07T11:35:54.071Z,688.00
2022-11-07T11:38:20.721Z,685.47
2022-11-07T11:40:47.853Z,693.47
2022-11-07T11:43:14.949Z,683.77
2022-11-07T11:45:41.715Z,686.73
2022-11-07T11:48:08.665Z,687.37
2022-11-07T11:50:35.070Z,689.17
2022-11-07T11:53:01.529Z,685.13
2022-11-07T11:55:28.525Z,689.03
2022-11-07T11:57:57.060Z,684.33
2022-11-07T12:00:23.458Z,684.37
2022-11-07T12:02:49.952Z,685.50
2022-11-07T12:05:16.414Z,692.27
2022-11-07T12:07:42.844Z,691.00
2022-11-07T12:10:09.278Z,686.67
2022-11-07T12:12:35.691Z,691.23
2022-11-07T12:15:02.134Z,690.83
2022-11-07T12:17:28.575Z,689.83
2022-11-07T12:19:54.988Z,689.63
2022-11-07T12:22:21.415Z,684.77
2022-11-07T12:24:47.993Z,685.83
2022-11-07T12:27:14.482Z,692.87
2022-11-07T12:29:40.888Z,684.67
2022-11-07T12:32:07.319Z,688.07
2022-11-07T12:34:33.730Z,688.23
2022-11-07T12:37:00.202Z,686.37
2022-11-07T12:39:26.654Z,682.10
2022-11-07T12:41:53.104Z,685.77
2022-11-07T12:44:19.521Z,685.63
2022-11-07T12:46:45.967Z,685.83
2022-11-07T12:49:12.431Z,694.37
2022-11-07T12:51:38.884Z,689.63
2022-11-07T12:54:05.403Z,687.77
2022-11-07T12:56:31.856Z,688.97
2022-11-07T12:58:58.330Z,682.80
2022-11-07T13:01:25.036Z,683.90
2022-11-07T13:03:51.617Z,688.13
2022-11-07T13:06:18.050Z,690.80
2022-11-07T13:08:44.457Z,687.83
2022-11-07T13:11:10.890Z,685.43
2022-11-07T13:13:37.291Z,686.77
2022-11-07T13:16:19.078Z,683.50
2022-11-07T13:18:45.510Z,683.30
2022-11-07T13:21:11.946Z,683.73
2022-11-07T13:23:38.892Z,684.67
2022-11-07T13:26:25.813Z,688.17
2022-11-07T13:28:52.306Z,686.43
2022-11-07T13:31:18.756Z,690.83
2022-11-07T13:33:45.176Z,682.77
2022-11-07T13:36:11.701Z,680.17
2022-11-07T13:38:38.136Z,697.00
2022-11-07T13:41:04.627Z,686.37
2022-11-07T13:43:31.039Z,682.43
2022-11-07T13:45:57.549Z,681.37
2022-11-07T13:48:23.948Z,678.47
2022-11-07T13:50:50.426Z,685.47
2022-11-07T13:53:17.141Z,683.47
2022-11-07T13:55:43.833Z,683.20
2022-11-07T13:58:10.319Z,684.97
2022-11-07T14:00:36.851Z,685.37
2022-11-07T14:03:03.356Z,677.67
2022-11-07T14:05:30.816Z,682.87
2022-11-07T14:07:57.286Z,682.23
2022-11-07T14:10:23.731Z,597.53
2022-11-07T14:12:50.180Z,647.87
2022-11-07T14:15:16.590Z,649.00
2022-11-07T14:17:43.034Z,655.40
2022-11-07T14:20:09.486Z,661.47
2022-11-07T14:22:35.929Z,665.37
2022-11-07T14:25:02.359Z,655.27
2022-11-07T14:27:28.773Z,658.97
2022-11-07T14:29:55.183Z,658.83
2022-11-07T14:32:21.629Z,662.27
2022-11-07T14:34:48.044Z,656.23
2022-11-07T14:37:14.569Z,659.63
2022-11-07T14:39:40.985Z,661.60
2022-11-07T14:42:07.419Z,655.10
2022-11-07T14:44:53.431Z,659.13
2022-11-07T14:47:20.266Z,658.53
2022-11-07T14:49:46.738Z,658.67
2022-11-07T14:52:16.514Z,660.77
2022-11-07T14:54:43.093Z,652.17
2022-11-07T14:57:09.554Z,654.43
2022-11-07T14:59:36.083Z,654.20
2022-11-07T15:02:02.698Z,658.70
2022-11-07T15:04:29.225Z,657.53
2022-11-07T15:06:55.706Z,655.20
2022-11-07T15:09:22.216Z,662.93
2022-11-07T15:11:50.313Z,659.77
2022-11-07T15:14:16.769Z,656.50
2022-11-07T15:16:43.227Z,661.53
2022-11-07T15:19:09.677Z,656.37
2022-11-07T15:21:36.108Z,660.33
2022-11-07T15:24:02.525Z,657.00
2022-11-07T15:26:28.980Z,661.90
2022-11-07T15:28:55.384Z,659.13
2022-11-07T15:31:21.796Z,657.27
2022-11-07T15:33:48.222Z,659.83
2022-11-07T15:36:14.642Z,658.67
2022-11-07T15:38:41.052Z,660.17
2022-11-07T15:41:07.478Z,657.97
2022-11-07T15:43:33.929Z,656.67
2022-11-07T15:46:00.368Z,652.87
2022-11-07T15:48:26.837Z,661.67
2022-11-07T15:50:53.241Z,666.10
2022-11-07T15:53:19.678Z,657.43
2022-11-07T15:55:46.096Z,654.17
2022-11-07T15:58:12.563Z,653.17
2022-11-07T16:00:38.956Z,660.67
2022-11-07T16:03:05.431Z,659.47
2022-11-07T16:05:31.917Z,652.23
2022-11-07T16:07:58.546Z,657.60
2022-11-07T16:10:24.971Z,652.13
2022-11-07T16:12:51.403Z,654.27
2022-11-07T16:15:17.834Z,663.13
2022-11-07T16:17:44.263Z,659.40
2022-11-07T16:20:10.670Z,661.97
2022-11-07T16:22:37.133Z,662.70
2022-11-07T16:25:05.914Z,656.13
2022-11-07T16:27:36.674Z,661.23
2022-11-07T16:30:03.096Z,653.63
2022-11-07T16:32:29.539Z,653.70
2022-11-07T16:34:55.938Z,652.20
2022-11-07T16:37:22.371Z,661.80
2022-11-07T16:39:48.823Z,661.10
2022-11-07T16:42:15.256Z,656.97
2022-11-07T16:44:41.716Z,661.03
2022-11-07T16:47:08.196Z,659.77
2022-11-07T16:49:34.586Z,655.13
2022-11-07T16:52:01.009Z,657.13
2022-11-07T16:54:27.413Z,656.00
2022-11-07T16:56:53.837Z,661.93
2022-11-07T16:59:20.260Z,658.93
2022-11-07T17:01:46.796Z,658.30
2022-11-07T17:04:13.280Z,657.37
2022-11-07T17:06:39.688Z,660.67
2022-11-07T17:09:10.635Z,655.03
2022-11-07T17:11:39.650Z,660.27
2022-11-07T17:14:06.088Z,653.37
2022-11-07T17:16:32.522Z,664.57
2022-11-07T17:18:58.935Z,657.57
2022-11-07T17:21:25.367Z,661.10
2022-11-07T17:23:51.780Z,654.50
2022-11-07T17:26:18.204Z,662.13
2022-11-07T17:28:44.635Z,664.70
2022-11-07T17:31:11.031Z,659.80
2022-11-07T17:33:37.442Z,658.10
2022-11-07T17:36:03.894Z,659.03
2022-11-07T17:38:30.327Z,666.37
2022-11-07T17:40:56.748Z,660.93
2022-11-07T17:43:23.163Z,658.47
2022-11-07T17:45:49.591Z,665.03
2022-11-07T17:48:16.207Z,662.43
2022-11-07T17:50:42.786Z,659.93
2022-11-07T17:53:09.251Z,666.57
2022-11-07T17:55:35.649Z,659.03
2022-11-07T17:58:02.079Z,660.50
2022-11-07T18:00:28.487Z,662.03
2022-11-07T18:02:55.123Z,663.13
2022-11-07T18:05:21.637Z,655.30
2022-11-07T18:07:48.162Z,662.63
2022-11-07T18:10:14.575Z,659.90
2022-11-07T18:12:41.036Z,659.33
2022-11-07T18:15:07.585Z,660.80
2022-11-07T18:17:34.130Z,664.57
2022-11-07T18:20:00.559Z,659.27
2022-11-07T18:22:31.426Z,661.90
2022-11-07T18:24:57.857Z,660.80
2022-11-07T18:27:24.310Z,669.73
2022-11-07T18:29:50.790Z,666.00
2022-11-07T18:32:17.259Z,667.80
2022-11-07T18:34:43.662Z,665.83
2022-11-07T18:37:10.140Z,666.53
2022-11-07T18:39:36.670Z,666.87
2022-11-07T18:42:03.114Z,661.03
2022-11-07T18:44:29.551Z,667.03
2022-11-07T18:46:55.998Z,662.07
2022-11-07T18:49:22.399Z,669.77
2022-11-07T18:51:48.831Z,659.50
2022-11-07T18:54:15.261Z,664.60
2022-11-07T18:56:41.722Z,669.70
2022-11-07T18:59:08.188Z,660.97
2022-11-07T19:01:34.789Z,658.63
2022-11-07T19:04:01.313Z,659.53
2022-11-07T19:06:27.746Z,664.63
2022-11-07T19:08:54.175Z,664.23
2022-11-07T19:11:20.653Z,658.93
2022-11-07T19:13:50.933Z,661.17
2022-11-07T19:16:17.397Z,662.77
2022-11-07T19:18:48.931Z,668.57
2022-11-07T19:21:18.996Z,654.83
2022-11-07T19:23:46.118Z,664.53
2022-11-07T19:26:12.522Z,659.93
2022-11-07T19:28:38.973Z,662.77
2022-11-07T19:31:05.441Z,665.63
2022-11-07T19:33:31.877Z,662.97
2022-11-07T19:35:58.338Z,660.53
2022-11-07T19:38:24.875Z,670.73
2022-11-07T19:40:51.319Z,662.90
2022-11-07T19:43:18.178Z,670.57
2022-11-07T19:45:44.914Z,662.83
2022-11-07T19:48:11.418Z,664.90
2022-11-07T19:50:38.065Z,663.43
2022-11-07T19:53:04.494Z,672.63
2022-11-07T19:55:30.931Z,669.93
2022-11-07T19:57:57.390Z,665.27
2022-11-07T20:00:23.968Z,666.67
2022-11-07T20:05:30.800Z,664.73
2022-11-07T20:08:02.115Z,665.33
2022-11-07T20:10:31.357Z,664.27
2022-11-07T20:12:57.895Z,663.03
2022-11-07T20:15:24.417Z,673.97
2022-11-07T20:17:50.880Z,668.33
2022-11-07T20:20:17.364Z,667.40
2022-11-07T20:22:46.228Z,670.10
2022-11-07T20:25:12.996Z,675.40
2022-11-07T20:27:39.467Z,665.87
2022-11-07T20:30:05.892Z,661.20
2022-11-07T20:32:32.331Z,670.53
2022-11-07T20:34:58.776Z,672.30
2022-11-07T20:37:25.233Z,668.37
2022-11-07T20:39:51.676Z,665.43
2022-11-07T20:42:18.142Z,667.87
2022-11-07T20:44:44.589Z,669.83
2022-11-07T20:47:11.051Z,665.73
2022-11-07T20:49:37.502Z,668.73
2022-11-07T20:52:04.080Z,684.10
2022-11-07T20:54:32.958Z,666.37
2022-11-07T20:56:59.433Z,663.10
2022-11-07T20:59:25.932Z,664.80
2022-11-07T21:01:52.387Z,667.53
2022-11-07T21:04:18.849Z,671.27
2022-11-07T21:06:45.285Z,660.57
2022-11-07T21:09:11.730Z,668.73
2022-11-07T21:11:38.219Z,662.17
2022-11-07T21:14:05.100Z,668.27
2022-11-07T21:16:31.569Z,663.53
2022-11-07T21:18:58.104Z,667.73
2022-11-07T21:21:24.620Z,675.67
2022-11-07T21:23:51.132Z,660.97
2022-11-07T21:26:17.543Z,663.13
2022-11-07T21:28:44.061Z,667.77
2022-11-07T21:31:10.676Z,664.63
2022-11-07T21:33:37.321Z,667.63
2022-11-07T21:36:05.067Z,663.43
2022-11-07T21:38:32.850Z,668.80
2022-11-07T21:40:59.330Z,664.13
2022-11-07T21:43:25.789Z,664.77
2022-11-07T21:45:52.247Z,669.13
2022-11-07T21:48:18.697Z,661.47
2022-11-07T21:50:45.688Z,664.00
2022-11-07T21:53:12.247Z,668.03
2022-11-07T21:55:38.694Z,668.63
2022-11-07T21:58:05.115Z,664.80
2022-11-07T22:00:35.881Z,662.83
2022-11-07T22:03:03.305Z,666.73
2022-11-07T22:05:29.811Z,669.73
2022-11-07T22:07:56.244Z,668.80
2022-11-07T22:10:22.731Z,670.57
2022-11-07T22:12:49.154Z,662.50
2022-11-07T22:15:15.607Z,664.13
2022-11-07T22:17:42.053Z,662.83
2022-11-07T22:20:08.490Z,666.63
2022-11-07T22:22:35.015Z,668.33
2022-11-07T22:25:01.485Z,662.50
2022-11-07T22:27:27.889Z,667.13
2022-11-07T22:29:54.331Z,667.70
2022-11-07T22:32:20.729Z,666.37
2022-11-07T22:34:51.205Z,674.97
2022-11-07T22:37:17.755Z,661.80
2022-11-07T22:39:44.454Z,663.80
2022-11-07T22:42:10.920Z,664.13
2022-11-07T22:44:37.354Z,667.63
2022-11-07T22:47:03.846Z,666.83
2022-11-07T22:49:30.299Z,663.57
2022-11-07T22:51:56.721Z,666.73
2022-11-07T22:54:23.143Z,671.83
2022-11-07T22:56:49.548Z,670.43
2022-11-07T22:59:15.983Z,669.83
2022-11-07T23:01:42.524Z,664.30
2022-11-07T23:04:09.039Z,664.87
2022-11-07T23:06:35.458Z,667.10
2022-11-07T23:09:01.911Z,665.13
2022-11-07T23:14:14.779Z,669.30
2022-11-07T23:16:41.202Z,666.73
2022-11-07T23:19:07.663Z,665.20
2022-11-07T23:21:34.138Z,665.90
2022-11-07T23:24:00.720Z,667.70
2022-11-07T23:26:27.163Z,664.63
2022-11-07T23:28:53.630Z,670.97
2022-11-07T23:31:20.058Z,669.13
2022-11-07T23:33:46.509Z,662.73
2022-11-07T23:36:12.928Z,666.33
2022-11-07T23:38:39.360Z,670.43
2022-11-07T23:41:05.786Z,665.60
2022-11-07T23:43:32.189Z,670.47
2022-11-07T23:45:58.588Z,669.33
2022-11-07T23:48:25.008Z,669.13
2022-11-07T23:50:51.414Z,667.53
2022-11-07T23:53:17.821Z,666.23
2022-11-07T23:55:44.215Z,668.00
2022-11-07T23:58:10.619Z,669.80
